Lima, Indiana
Current Conditions -  °F | °C
As of 8:34 AM on Sunday 21 Dec 2014 (Local Time) from KIRS Reporting Station
Haze Haze  
Wind Chill: 22°   Ceiling: 6000
Heat Index: 28°   Visibility: 5mi
Dew Point: 27°   Wind: 6mph
Humidity: 93%   Direction: 160°SSE
Pressure: 30.25"   Gusts: NA
Location:  41.7293°N, 85.4292°W
Report Text: KIRS 211334Z AUTO 16005KT 5SM BR OVC060 M02/M03 A3025 RMK AO2
Loading
Personal Weather Stations






























Interactive Weather Map New forecast layout! Learn more

10-Day Weather Forecast

Advertisements
Track Severe Weather on mobile